createdAt,value
2018-03-30T00:00:55.303Z,96971.72
2018-03-30T00:03:27.417Z,96969.77
2018-03-30T00:05:58.309Z,96970.90
2018-03-30T00:08:28.574Z,96967.19
2018-03-30T00:11:00.426Z,96972.61
2018-03-30T00:13:30.992Z,96977.05
2018-03-30T00:16:01.642Z,96977.63
2018-03-30T00:18:31.530Z,96970.63
2018-03-30T00:21:02.024Z,96969.14
2018-03-30T00:23:32.397Z,96982.17
2018-03-30T00:26:02.491Z,96987.55
2018-03-30T00:28:32.501Z,96984.08
2018-03-30T00:31:04.833Z,96981.88
2018-03-30T00:33:35.926Z,96991.28
2018-03-30T00:36:05.801Z,96993.04
2018-03-30T00:38:37.152Z,96991.78
2018-03-30T00:41:06.688Z,96988.89
2018-03-30T00:43:36.884Z,96992.41
2018-03-30T00:46:06.635Z,96982.84
2018-03-30T00:48:37.052Z,96986.98
2018-03-30T00:51:07.680Z,96982.33
2018-03-30T00:53:51.305Z,96989.10
2018-03-30T00:56:20.834Z,96989.36
2018-03-30T00:58:50.323Z,96988.56
2018-03-30T01:01:20.248Z,96984.94
2018-03-30T01:03:50.760Z,96983.06
2018-03-30T01:06:20.495Z,96982.69
2018-03-30T01:08:50.863Z,96987.03
2018-03-30T01:11:21.287Z,96986.84
2018-03-30T01:13:51.313Z,96990.20
2018-03-30T01:16:22.819Z,96993.39
2018-03-30T01:18:52.405Z,96986.47
2018-03-30T01:21:22.071Z,96994.25
2018-03-30T01:23:52.251Z,96991.44
2018-03-30T01:26:21.986Z,97000.45
2018-03-30T01:28:51.678Z,96997.32
2018-03-30T01:31:21.463Z,96989.80
2018-03-30T01:33:51.096Z,96991.41
2018-03-30T01:36:20.780Z,96993.69
2018-03-30T01:38:50.282Z,96992.91
2018-03-30T01:41:21.409Z,96983.39
2018-03-30T01:43:52.593Z,96978.41
2018-03-30T01:46:22.675Z,96994.46
2018-03-30T01:48:53.990Z,96986.97
2018-03-30T01:51:23.787Z,96986.59
2018-03-30T01:53:54.325Z,96988.34
2018-03-30T01:56:24.914Z,96995.49
2018-03-30T01:58:54.829Z,96995.72
2018-03-30T02:01:24.454Z,96997.56
2018-03-30T02:03:54.308Z,96997.04
2018-03-30T02:06:25.121Z,96997.50
2018-03-30T02:08:54.720Z,96998.28
2018-03-30T02:11:24.238Z,96995.83
2018-03-30T02:13:54.522Z,96995.30
2018-03-30T02:16:24.321Z,96995.59
2018-03-30T02:18:53.999Z,96997.28
2018-03-30T02:21:23.882Z,96997.56
2018-03-30T02:23:53.343Z,97003.48
2018-03-30T02:26:23.999Z,97004.05
2018-03-30T02:28:54.575Z,96998.02
2018-03-30T02:31:24.898Z,97003.10
2018-03-30T02:33:54.655Z,96998.31
2018-03-30T02:36:25.011Z,96991.14
2018-03-30T02:38:55.060Z,96998.53
2018-03-30T02:41:25.083Z,96993.56
2018-03-30T02:43:55.801Z,96990.23
2018-03-30T02:46:25.931Z,96994.98
2018-03-30T02:48:55.913Z,97002.39
2018-03-30T02:51:25.651Z,96997.56
2018-03-30T02:53:58.583Z,96986.25
2018-03-30T02:56:28.876Z,96985.83
2018-03-30T02:58:58.949Z,96970.65
2018-03-30T03:01:29.231Z,96976.41
2018-03-30T03:03:59.764Z,96976.03
2018-03-30T03:06:31.261Z,96968.18
2018-03-30T03:09:23.008Z,96975.52
2018-03-30T03:12:20.654Z,96983.55
2018-03-30T03:14:56.644Z,96976.82
2018-03-30T03:17:26.271Z,96978.58
2018-03-30T03:20:00.799Z,96981.95
2018-03-30T03:22:33.038Z,96978.73
2018-03-30T03:25:02.803Z,96977.45
2018-03-30T03:27:35.039Z,96977.04
2018-03-30T03:30:05.760Z,96977.27
2018-03-30T03:32:35.321Z,96972.91
2018-03-30T03:35:06.354Z,96974.11
2018-03-30T03:37:36.644Z,96973.81
2018-03-30T03:40:06.297Z,96973.48
2018-03-30T03:42:36.978Z,96968.25
2018-03-30T03:45:07.403Z,96966.69
2018-03-30T03:47:39.321Z,96958.28
2018-03-30T03:50:09.657Z,96961.86
2018-03-30T03:52:40.417Z,96963.88
2018-03-30T03:55:10.105Z,96964.45
2018-03-30T04:08:38.080Z,96954.98
2018-03-30T04:11:07.992Z,96960.92
2018-03-30T04:13:37.684Z,96962.01
2018-03-30T04:16:07.142Z,96960.58
2018-03-30T04:18:36.958Z,96971.50
2018-03-30T04:21:07.331Z,96966.44
2018-03-30T04:23:37.024Z,96959.84
2018-03-30T04:26:06.720Z,96967.37
2018-03-30T04:28:37.063Z,96963.77
2018-03-30T04:31:06.766Z,96962.66
2018-03-30T04:33:36.977Z,96969.66
2018-03-30T04:36:06.724Z,96961.43
2018-03-30T04:38:36.316Z,96960.08
2018-03-30T04:41:05.914Z,96951.85
2018-03-30T04:43:36.366Z,96946.61
2018-03-30T04:46:07.114Z,96958.59
2018-03-30T04:48:36.786Z,96943.77
2018-03-30T04:51:06.737Z,96954.14
2018-03-30T04:53:36.323Z,96947.28
2018-03-30T04:56:06.836Z,96944.63
2018-03-30T04:58:37.108Z,96940.29
2018-03-30T05:01:09.169Z,96945.41
2018-03-30T05:03:39.843Z,96946.11
2018-03-30T05:06:11.549Z,96947.28
2018-03-30T05:08:41.252Z,96948.52
2018-03-30T05:11:11.896Z,96948.92
2018-03-30T05:13:43.040Z,96952.30
2018-03-30T05:16:14.073Z,96943.53
2018-03-30T05:18:44.602Z,96938.44
2018-03-30T05:21:14.781Z,96934.34
2018-03-30T05:23:45.597Z,96930.36
2018-03-30T05:26:15.212Z,96941.93
2018-03-30T05:28:46.734Z,96936.39
2018-03-30T05:31:16.577Z,96942.05
2018-03-30T05:33:47.362Z,96944.06
2018-03-30T05:36:17.927Z,96952.70
2018-03-30T05:38:48.180Z,96949.63
2018-03-30T05:41:17.823Z,96950.01
2018-03-30T05:43:47.441Z,96953.41
2018-03-30T05:46:17.691Z,96954.45
2018-03-30T05:48:49.174Z,96950.83
2018-03-30T05:51:19.765Z,96949.36
2018-03-30T05:53:50.102Z,96948.84
2018-03-30T05:56:19.748Z,96951.53
2018-03-30T05:58:49.506Z,96949.36
2018-03-30T06:01:23.942Z,96951.67
2018-03-30T06:03:53.751Z,96959.78
2018-03-30T06:06:25.603Z,96959.84
2018-03-30T06:08:56.931Z,96960.48
2018-03-30T06:11:27.274Z,96961.19
2018-03-30T06:13:57.299Z,96963.12
2018-03-30T06:16:27.177Z,96964.88
2018-03-30T06:18:56.795Z,96953.13
2018-03-30T06:21:26.626Z,96941.53
2018-03-30T06:23:57.252Z,96949.64
2018-03-30T06:26:27.592Z,96950.59
2018-03-30T06:28:57.729Z,96948.68
2018-03-30T06:31:28.484Z,96949.36
2018-03-30T06:33:59.627Z,96946.89
2018-03-30T06:36:30.862Z,96955.51
2018-03-30T06:39:01.187Z,96949.77
2018-03-30T06:41:47.082Z,96954.77
2018-03-30T06:44:19.042Z,96957.08
2018-03-30T06:46:49.742Z,96950.25
2018-03-30T06:49:20.367Z,96945.91
2018-03-30T06:51:51.393Z,96962.40
2018-03-30T06:54:21.710Z,96962.95
2018-03-30T06:56:52.865Z,96967.58
2018-03-30T06:59:22.982Z,96977.56
2018-03-30T07:01:52.496Z,96974.50
2018-03-30T07:04:22.111Z,96970.20
2018-03-30T07:06:51.701Z,96974.42
2018-03-30T07:09:26.109Z,96966.08
2018-03-30T07:11:56.044Z,96955.33
2018-03-30T07:14:25.806Z,96957.54
2018-03-30T07:16:56.040Z,96972.42
2018-03-30T07:19:27.083Z,96965.17
2018-03-30T07:21:56.676Z,96970.02
2018-03-30T07:24:26.320Z,96975.69
2018-03-30T07:26:56.744Z,96986.36
2018-03-30T07:29:26.638Z,96986.23
2018-03-30T07:31:56.413Z,96984.41
2018-03-30T07:34:26.000Z,96992.30
2018-03-30T07:36:55.721Z,96983.50
2018-03-30T07:39:25.385Z,96991.47
2018-03-30T07:41:56.159Z,96996.48
2018-03-30T07:44:27.120Z,96999.95
2018-03-30T07:46:57.930Z,97008.83
2018-03-30T07:49:28.721Z,97007.18
2018-03-30T07:51:58.673Z,97008.11
2018-03-30T07:54:28.312Z,97007.35
2018-03-30T07:56:58.127Z,97011.41
2018-03-30T07:59:27.703Z,97010.94
2018-03-30T08:04:36.774Z,96995.89
2018-03-30T08:07:08.102Z,97012.30
2018-03-30T08:09:38.854Z,97002.56
2018-03-30T08:12:09.172Z,97001.72
2018-03-30T08:14:40.103Z,97001.69
2018-03-30T08:17:09.576Z,96999.18
2018-03-30T08:19:40.938Z,96999.21
2018-03-30T08:22:11.310Z,97008.20
2018-03-30T08:24:40.824Z,96997.82
2018-03-30T08:27:10.432Z,97006.37
2018-03-30T08:29:39.947Z,97001.68
2018-03-30T08:32:09.644Z,97015.02
2018-03-30T08:34:39.115Z,97008.20
2018-03-30T08:37:08.693Z,96998.78
2018-03-30T08:39:50.068Z,97004.22
2018-03-30T08:42:19.635Z,96999.22
2018-03-30T08:44:49.455Z,97005.64
2018-03-30T08:47:19.595Z,96999.97
2018-03-30T08:49:49.121Z,96994.23
2018-03-30T08:52:19.412Z,97001.94
2018-03-30T08:54:50.114Z,96999.39
2018-03-30T08:57:20.980Z,96991.73
2018-03-30T08:59:50.791Z,96996.64
2018-03-30T09:02:21.305Z,96997.77
2018-03-30T09:04:51.033Z,96987.48
2018-03-30T09:07:21.960Z,96975.15
2018-03-30T09:09:51.880Z,96979.00
2018-03-30T09:12:22.111Z,96977.08
2018-03-30T09:14:52.469Z,96961.44
2018-03-30T09:17:22.522Z,96959.50
2018-03-30T09:19:52.652Z,96966.50
2018-03-30T09:22:22.949Z,96966.20
2018-03-30T09:24:53.217Z,96964.42
2018-03-30T09:27:23.270Z,96952.72
2018-03-30T09:29:53.734Z,96956.62
2018-03-30T09:32:23.533Z,96945.97
2018-03-30T09:34:53.896Z,96947.28
2018-03-30T09:37:23.506Z,96957.94
2018-03-30T09:39:53.102Z,96952.98
2018-03-30T09:42:22.603Z,96958.92
2018-03-30T09:44:52.418Z,96966.99
2018-03-30T09:47:22.104Z,96957.09
2018-03-30T09:49:52.537Z,96978.34
2018-03-30T09:52:22.779Z,96960.73
2018-03-30T09:54:52.421Z,96964.51
2018-03-30T09:57:21.905Z,96967.97
2018-03-30T09:59:51.543Z,96959.14
2018-03-30T10:02:21.347Z,96952.73
2018-03-30T10:05:05.751Z,96958.20
2018-03-30T10:07:35.842Z,96974.59
2018-03-30T10:10:05.833Z,96964.18
2018-03-30T10:12:35.453Z,96949.26
2018-03-30T10:15:05.149Z,96945.66
2018-03-30T10:17:34.919Z,96936.05
2018-03-30T10:20:05.592Z,96915.19
2018-03-30T10:22:35.273Z,96939.38
2018-03-30T10:25:05.521Z,96933.67
2018-03-30T10:27:36.286Z,96928.12
2018-03-30T10:30:06.489Z,96934.47
2018-03-30T10:32:36.107Z,96923.56
2018-03-30T10:35:05.792Z,96936.02
2018-03-30T10:37:35.452Z,96945.75
2018-03-30T10:40:06.056Z,96923.94
2018-03-30T10:42:36.113Z,96947.86
2018-03-30T10:45:06.585Z,96945.98
2018-03-30T10:47:36.672Z,96941.14
2018-03-30T10:50:07.756Z,96944.95
2018-03-30T10:52:37.407Z,96943.84
2018-03-30T10:55:07.938Z,96939.66
2018-03-30T10:57:37.798Z,96926.84
2018-03-30T11:00:07.404Z,96927.84
2018-03-30T11:02:36.973Z,96920.03
2018-03-30T11:05:07.503Z,96923.06
2018-03-30T11:07:37.734Z,96933.59
2018-03-30T11:10:08.414Z,96925.09
2018-03-30T11:12:39.040Z,96923.03
2018-03-30T11:15:10.438Z,96924.53
2018-03-30T11:17:40.698Z,96917.81
2018-03-30T11:20:19.534Z,96915.46
2018-03-30T11:22:50.900Z,96925.58
2018-03-30T11:25:22.752Z,96908.24
2018-03-30T11:27:52.318Z,96923.48
2018-03-30T11:30:24.194Z,96913.21
2018-03-30T11:32:56.286Z,96918.57
2018-03-30T11:35:26.633Z,96917.78
2018-03-30T11:37:56.380Z,96882.16
2018-03-30T11:40:28.322Z,96901.39
2018-03-30T11:42:58.944Z,96879.51
2018-03-30T11:45:29.035Z,96898.31
2018-03-30T11:48:01.259Z,96887.36
2018-03-30T11:50:32.327Z,96883.68
2018-03-30T11:53:02.363Z,96886.49
2018-03-30T11:55:32.113Z,96882.92
2018-03-30T11:58:02.362Z,96875.28
2018-03-30T12:00:33.027Z,96860.02
2018-03-30T12:03:02.968Z,96876.27
2018-03-30T12:05:35.051Z,96855.78
2018-03-30T12:08:04.950Z,96869.58
2018-03-30T12:10:34.789Z,96852.87
2018-03-30T12:13:05.382Z,96863.91
2018-03-30T12:15:35.817Z,96848.65
2018-03-30T12:18:06.163Z,96849.91
2018-03-30T12:20:36.481Z,96846.86
2018-03-30T12:23:06.375Z,96834.40
2018-03-30T12:25:36.299Z,96844.22
2018-03-30T12:28:06.335Z,96827.09
2018-03-30T12:30:37.017Z,96846.83
2018-03-30T12:33:07.801Z,96800.97
2018-03-30T12:35:38.952Z,96825.22
2018-03-30T12:38:10.000Z,96796.30
2018-03-30T12:40:41.326Z,96816.96
2018-03-30T12:43:11.667Z,96818.02
2018-03-30T12:45:44.027Z,96804.86
2018-03-30T12:48:15.332Z,96826.64
2018-03-30T12:50:46.519Z,96821.38
2018-03-30T12:53:17.190Z,96809.44
2018-03-30T12:55:48.347Z,96819.63
2018-03-30T12:58:19.868Z,96800.68
2018-03-30T13:00:51.511Z,96822.00
2018-03-30T13:03:21.630Z,96804.80
2018-03-30T13:06:00.919Z,96791.67
2018-03-30T13:08:34.035Z,96811.34
2018-03-30T13:11:03.992Z,96809.34
2018-03-30T13:13:34.185Z,96798.83
2018-03-30T13:16:04.928Z,96788.34
2018-03-30T13:18:35.054Z,96800.42
2018-03-30T13:21:05.575Z,96785.93
2018-03-30T13:23:35.572Z,96817.76
2018-03-30T13:26:06.286Z,96805.23
2018-03-30T13:28:36.055Z,96784.20
2018-03-30T13:31:06.095Z,96804.51
2018-03-30T13:33:36.071Z,96804.64
2018-03-30T13:36:06.042Z,96786.14
2018-03-30T13:38:36.580Z,96792.05
2018-03-30T13:44:08.372Z,96770.33
2018-03-30T13:46:38.728Z,96785.48
2018-03-30T13:49:08.891Z,96784.53
2018-03-30T13:51:48.715Z,96780.16
2018-03-30T13:54:19.719Z,96759.21
2018-03-30T13:56:53.650Z,96789.70
2018-03-30T13:59:29.512Z,96780.59
2018-03-30T14:02:07.532Z,96785.91
2018-03-30T14:04:42.927Z,96768.81
2018-03-30T14:10:19.242Z,96773.97
2018-03-30T14:13:03.365Z,96784.83
2018-03-30T14:15:36.473Z,96786.95
2018-03-30T14:18:07.412Z,96802.92
2018-03-30T14:20:39.961Z,96799.45
2018-03-30T14:23:17.462Z,96797.36
2018-03-30T14:28:56.251Z,96777.03
2018-03-30T14:31:33.137Z,96774.77
2018-03-30T14:34:07.033Z,96790.80
2018-03-30T14:36:51.785Z,96786.22
2018-03-30T14:39:33.990Z,96799.70
2018-03-30T14:42:11.535Z,96802.31
2018-03-30T14:48:04.887Z,96786.98
2018-03-30T14:53:41.363Z,96804.77
2018-03-30T14:56:17.137Z,96797.75
2018-03-30T14:59:01.479Z,96804.52
2018-03-30T15:01:43.677Z,96809.27
2018-03-30T15:04:16.904Z,96808.47
2018-03-30T15:09:56.056Z,96810.64
2018-03-30T15:12:36.836Z,96806.59
2018-03-30T15:15:26.974Z,96803.70
2018-03-30T15:18:08.775Z,96797.55
2018-03-30T15:20:49.147Z,96799.04
2018-03-30T15:26:24.305Z,96797.95
2018-03-30T15:29:06.018Z,96792.40
2018-03-30T15:34:38.272Z,96805.98
2018-03-30T15:37:24.179Z,96798.85
2018-03-30T15:39:59.828Z,96797.72
2018-03-30T15:42:33.849Z,96799.97
2018-03-30T15:45:14.816Z,96798.05
2018-03-30T15:47:46.134Z,96799.06
2018-03-30T15:50:17.445Z,96791.41
2018-03-30T15:59:52.465Z,96805.54
2018-03-30T16:03:04.687Z,96807.48
2018-03-30T16:05:34.707Z,96802.28
2018-03-30T16:08:05.376Z,96815.14
2018-03-30T16:10:51.650Z,96813.85
2018-03-30T16:13:21.711Z,96823.46
2018-03-30T16:15:52.298Z,96833.47
2018-03-30T16:18:22.785Z,96835.58
2018-03-30T16:20:52.154Z,96842.59
2018-03-30T16:23:23.166Z,96830.55
2018-03-30T16:25:52.581Z,96849.98
2018-03-30T16:28:21.911Z,96833.32
2018-03-30T16:30:51.851Z,96852.34
2018-03-30T16:33:21.094Z,96849.38
2018-03-30T16:35:50.621Z,96860.20
2018-03-30T16:38:20.339Z,96867.09
2018-03-30T16:41:01.232Z,96860.08
2018-03-30T16:46:16.623Z,96861.70
2018-03-30T16:49:01.478Z,96853.21
2018-03-30T16:54:21.074Z,96853.57
2018-03-30T16:56:51.624Z,96842.76
2018-03-30T16:59:23.296Z,96847.88
2018-03-30T17:01:59.078Z,96833.83
2018-03-30T17:04:28.796Z,96836.23
2018-03-30T17:06:58.849Z,96830.95
2018-03-30T17:09:28.213Z,96836.08
2018-03-30T17:11:58.236Z,96828.37
2018-03-30T17:14:27.970Z,96836.57
2018-03-30T17:16:58.301Z,96832.77
2018-03-30T17:19:27.476Z,96823.42
2018-03-30T17:21:56.379Z,96829.06
2018-03-30T17:24:25.374Z,96829.20
2018-03-30T17:26:54.449Z,96820.58
2018-03-30T17:29:23.743Z,96810.59
2018-03-30T17:31:53.072Z,96801.04
2018-03-30T17:34:22.848Z,96792.42
2018-03-30T17:36:52.077Z,96778.28
2018-03-30T17:39:20.966Z,96772.91
2018-03-30T17:41:50.249Z,96770.20
2018-03-30T17:44:19.342Z,96771.53
2018-03-30T17:46:49.911Z,96762.80
2018-03-30T17:49:22.971Z,96743.80
2018-03-30T17:51:52.494Z,96730.19
2018-03-30T17:54:25.608Z,96707.56
2018-03-30T17:56:58.274Z,96650.05
2018-03-30T17:59:33.198Z,96694.95
2018-03-30T18:02:05.039Z,96686.73
2018-03-30T18:04:36.204Z,96670.69
2018-03-30T18:07:08.771Z,96677.14
2018-03-30T18:09:39.132Z,96678.34
2018-03-30T18:12:08.713Z,96675.23
2018-03-30T18:14:53.889Z,96682.49
2018-03-30T18:17:25.906Z,96685.72
2018-03-30T18:19:56.658Z,96682.06
2018-03-30T18:22:25.884Z,96700.78
2018-03-30T18:24:55.021Z,96688.79
2018-03-30T18:27:24.167Z,96692.30
2018-03-30T18:29:53.807Z,96686.36
2018-03-30T18:32:22.807Z,96701.03
2018-03-30T18:34:52.932Z,96700.52
2018-03-30T18:37:23.127Z,96719.77
2018-03-30T18:39:52.615Z,96741.14
2018-03-30T18:42:21.709Z,96757.28
2018-03-30T18:44:51.790Z,96761.03
2018-03-30T18:47:23.713Z,96785.69
2018-03-30T18:49:53.964Z,96785.39
2018-03-30T18:52:26.613Z,96772.72
2018-03-30T18:54:56.854Z,96786.59
2018-03-30T18:57:26.894Z,96799.64
2018-03-30T18:59:57.881Z,96824.70
2018-03-30T19:02:29.100Z,96790.76
2018-03-30T19:04:58.580Z,96811.88
2018-03-30T19:07:29.083Z,96796.52
2018-03-30T19:10:02.631Z,96782.41
2018-03-30T19:12:33.676Z,96762.48
2018-03-30T19:15:08.939Z,96779.60
2018-03-30T19:17:38.360Z,96782.44
2018-03-30T19:20:07.502Z,96779.59
2018-03-30T19:22:38.832Z,96777.61
2018-03-30T19:25:08.695Z,96790.10
2018-03-30T19:27:43.108Z,96784.34
2018-03-30T19:30:12.611Z,96784.07
2018-03-30T19:32:42.512Z,96807.52
2018-03-30T19:35:14.239Z,96789.45
2018-03-30T19:37:47.667Z,96799.31
2018-03-30T19:40:17.962Z,96813.97
2018-03-30T19:42:47.457Z,96814.53
2018-03-30T19:45:17.875Z,96813.19
2018-03-30T19:47:55.463Z,96798.90
2018-03-30T19:53:36.186Z,96825.69
2018-03-30T20:02:18.613Z,96822.05
2018-03-30T20:04:51.950Z,96829.20
2018-03-30T20:07:22.915Z,96828.78
2018-03-30T20:10:20.884Z,96830.13
2018-03-30T20:12:55.497Z,96821.20
2018-03-30T20:15:28.041Z,96806.84
2018-03-30T20:17:58.285Z,96817.05
2018-03-30T20:20:34.461Z,96801.72
2018-03-30T20:25:38.696Z,96787.02
2018-03-30T20:28:12.231Z,96780.97
2018-03-30T20:30:52.234Z,96782.89
2018-03-30T20:33:22.968Z,96770.08
2018-03-30T20:35:58.057Z,96772.36
2018-03-30T20:38:28.906Z,96770.48
2018-03-30T20:43:39.154Z,96766.30
2018-03-30T20:46:09.849Z,96755.50
2018-03-30T20:48:40.384Z,96738.16
2018-03-30T20:51:21.050Z,96726.45
2018-03-30T20:59:49.297Z,96715.00
2018-03-30T21:02:19.716Z,96707.72
2018-03-30T21:04:49.960Z,96699.66
2018-03-30T21:07:20.087Z,96681.60
2018-03-30T21:09:49.970Z,96679.84
2018-03-30T21:12:19.730Z,96680.39
2018-03-30T21:17:23.843Z,96666.27
2018-03-30T21:19:53.000Z,96670.72
2018-03-30T21:24:56.919Z,96658.45
2018-03-30T21:27:27.736Z,96648.50
2018-03-30T21:29:56.693Z,96668.30
2018-03-30T21:32:25.721Z,96657.83
2018-03-30T21:34:58.893Z,96676.67
2018-03-30T21:37:33.281Z,96678.56
2018-03-30T21:40:03.479Z,96671.97
2018-03-30T21:42:32.993Z,96670.91
2018-03-30T21:45:02.176Z,96683.84
2018-03-30T21:47:34.585Z,96679.11
2018-03-30T21:50:03.520Z,96679.25
2018-03-30T21:52:32.239Z,96630.48
2018-03-30T21:55:02.183Z,96660.91
2018-03-30T21:57:32.014Z,96645.42
2018-03-30T22:00:09.337Z,96656.88
2018-03-30T22:02:40.632Z,96638.16
2018-03-30T22:05:14.391Z,96617.66
2018-03-30T22:07:46.335Z,96645.53
2018-03-30T22:10:15.799Z,96636.11
2018-03-30T22:12:44.950Z,96673.43
2018-03-30T22:15:14.581Z,96644.10
2018-03-30T22:17:44.754Z,96655.39
2018-03-30T22:20:13.856Z,96629.27
2018-03-30T22:22:43.409Z,96652.55
2018-03-30T22:25:13.862Z,96631.95
2018-03-30T22:27:43.181Z,96623.19
2018-03-30T22:30:12.920Z,96627.77
2018-03-30T22:32:43.450Z,96633.15
2018-03-30T22:35:13.212Z,96627.75
2018-03-30T22:37:41.673Z,96638.02
2018-03-30T22:40:19.067Z,96623.60
2018-03-30T22:42:52.858Z,96627.76
2018-03-30T22:45:23.101Z,96630.06
2018-03-30T22:47:52.297Z,96639.22
2018-03-30T22:50:21.606Z,96650.66
2018-03-30T22:52:50.047Z,96638.54
2018-03-30T22:55:19.919Z,96653.37
2018-03-30T22:57:48.981Z,96630.48
2018-03-30T23:00:17.975Z,96612.58
2018-03-30T23:02:47.896Z,96624.82
2018-03-30T23:05:18.203Z,96610.28
2018-03-30T23:07:48.723Z,96606.52
2018-03-30T23:10:18.333Z,96603.02
2018-03-30T23:12:47.352Z,96600.44
2018-03-30T23:15:16.047Z,96603.84
2018-03-30T23:17:45.255Z,96598.16
2018-03-30T23:20:14.101Z,96579.45
2018-03-30T23:22:42.968Z,96594.65
2018-03-30T23:25:11.990Z,96558.31
2018-03-30T23:27:40.796Z,96570.42
2018-03-30T23:30:10.440Z,96580.95
2018-03-30T23:42:16.295Z,96553.18
2018-03-30T23:44:45.099Z,96554.13
2018-03-30T23:47:13.896Z,96568.41
2018-03-30T23:49:43.581Z,96550.09
2018-03-30T23:52:13.061Z,96550.09
2018-03-30T23:54:42.628Z,96552.65
2018-03-30T23:57:11.418Z,96562.33
2018-03-30T23:59:40.263Z,96559.78
